sensor_id;sensor_type;location;lat;lon;timestamp;temperature;humidity
3416;DHT22;1721;51.238;9.562;2023-03-01T00:00:35;-0.90;88.30
3416;DHT22;1721;51.238;9.562;2023-03-01T00:03:00;-0.80;88.00
3416;DHT22;1721;51.238;9.562;2023-03-01T00:05:26;-0.90;88.20
3416;DHT22;1721;51.238;9.562;2023-03-01T00:07:54;-0.90;88.40
3416;DHT22;1721;51.238;9.562;2023-03-01T00:10:20;-1.00;88.60
3416;DHT22;1721;51.238;9.562;2023-03-01T00:12:45;-1.20;89.40
3416;DHT22;1721;51.238;9.562;2023-03-01T00:15:11;-1.30;89.80
3416;DHT22;1721;51.238;9.562;2023-03-01T00:17:36;-1.20;89.40
3416;DHT22;1721;51.238;9.562;2023-03-01T00:20:02;-1.20;88.70
3416;DHT22;1721;51.238;9.562;2023-03-01T00:22:27;-1.20;88.40
3416;DHT22;1721;51.238;9.562;2023-03-01T00:24:53;-1.20;88.70
3416;DHT22;1721;51.238;9.562;2023-03-01T00:27:19;-1.20;88.30
3416;DHT22;1721;51.238;9.562;2023-03-01T00:29:45;-1.10;88.00
3416;DHT22;1721;51.238;9.562;2023-03-01T00:32:10;-1.10;87.70
3416;DHT22;1721;51.238;9.562;2023-03-01T00:34:35;-1.10;87.50
3416;DHT22;1721;51.238;9.562;2023-03-01T00:37:01;-1.10;87.70
3416;DHT22;1721;51.238;9.562;2023-03-01T00:39:30;-1.10;87.60
3416;DHT22;1721;51.238;9.562;2023-03-01T00:41:56;-1.20;87.50
3416;DHT22;1721;51.238;9.562;2023-03-01T00:44:22;-1.20;87.80
3416;DHT22;1721;51.238;9.562;2023-03-01T00:46:47;-1.20;87.80
3416;DHT22;1721;51.238;9.562;2023-03-01T00:49:13;-1.20;88.10
3416;DHT22;1721;51.238;9.562;2023-03-01T00:51:39;-1.30;88.60
3416;DHT22;1721;51.238;9.562;2023-03-01T00:54:09;-1.50;89.10
3416;DHT22;1721;51.238;9.562;2023-03-01T00:56:35;-1.60;89.40
3416;DHT22;1721;51.238;9.562;2023-03-01T00:59:00;-1.60;89.90
3416;DHT22;1721;51.238;9.562;2023-03-01T01:01:27;-1.50;89.40
3416;DHT22;1721;51.238;9.562;2023-03-01T01:03:57;-1.50;89.00
3416;DHT22;1721;51.238;9.562;2023-03-01T01:06:36;-1.40;88.60
3416;DHT22;1721;51.238;9.562;2023-03-01T01:09:03;-1.40;88.30
3416;DHT22;1721;51.238;9.562;2023-03-01T01:11:29;-1.40;88.10
3416;DHT22;1721;51.238;9.562;2023-03-01T01:13:54;-1.30;87.90
3416;DHT22;1721;51.238;9.562;2023-03-01T01:16:21;-1.30;87.50
3416;DHT22;1721;51.238;9.562;2023-03-01T01:18:46;-1.40;87.30
3416;DHT22;1721;51.238;9.562;2023-03-01T01:21:13;-1.40;87.50
3416;DHT22;1721;51.238;9.562;2023-03-01T01:23:39;-1.50;87.60
3416;DHT22;1721;51.238;9.562;2023-03-01T01:26:06;-1.50;87.90
3416;DHT22;1721;51.238;9.562;2023-03-01T01:28:31;-1.50;87.90
3416;DHT22;1721;51.238;9.562;2023-03-01T01:30:57;-1.50;87.80
3416;DHT22;1721;51.238;9.562;2023-03-01T01:33:22;-1.60;88.00
3416;DHT22;1721;51.238;9.562;2023-03-01T01:35:48;-1.60;87.90
3416;DHT22;1721;51.238;9.562;2023-03-01T01:38:13;-1.60;87.90
3416;DHT22;1721;51.238;9.562;2023-03-01T01:40:45;-1.60;87.70
3416;DHT22;1721;51.238;9.562;2023-03-01T01:43:16;-1.60;88.00
3416;DHT22;1721;51.238;9.562;2023-03-01T01:45:43;-1.60;87.90
3416;DHT22;1721;51.238;9.562;2023-03-01T01:48:10;-1.60;87.70
3416;DHT22;1721;51.238;9.562;2023-03-01T01:50:38;-1.70;87.70
3416;DHT22;1721;51.238;9.562;2023-03-01T01:53:05;-1.70;87.80
3416;DHT22;1721;51.238;9.562;2023-03-01T01:55:31;-1.70;87.90
3416;DHT22;1721;51.238;9.562;2023-03-01T01:57:58;-1.70;87.70
3416;DHT22;1721;51.238;9.562;2023-03-01T02:00:26;-1.80;87.40
3416;DHT22;1721;51.238;9.562;2023-03-01T02:02:56;-2.10;88.00
3416;DHT22;1721;51.238;9.562;2023-03-01T02:08:08;-2.20;88.80
3416;DHT22;1721;51.238;9.562;2023-03-01T02:10:35;-2.20;89.80
3416;DHT22;1721;51.238;9.562;2023-03-01T02:13:01;-2.10;89.40
3416;DHT22;1721;51.238;9.562;2023-03-01T02:15:31;-2.00;89.10
3416;DHT22;1721;51.238;9.562;2023-03-01T02:17:56;-1.90;88.60
3416;DHT22;1721;51.238;9.562;2023-03-01T02:20:23;-1.90;88.30
3416;DHT22;1721;51.238;9.562;2023-03-01T02:22:50;-1.90;87.70
3416;DHT22;1721;51.238;9.562;2023-03-01T02:25:21;-1.90;87.60
3416;DHT22;1721;51.238;9.562;2023-03-01T02:28:05;-1.90;87.60
3416;DHT22;1721;51.238;9.562;2023-03-01T02:30:33;-1.90;87.90
3416;DHT22;1721;51.238;9.562;2023-03-01T02:32:59;-1.90;88.00
3416;DHT22;1721;51.238;9.562;2023-03-01T02:35:36;-1.90;88.30
3416;DHT22;1721;51.238;9.562;2023-03-01T02:38:03;-1.90;88.30
3416;DHT22;1721;51.238;9.562;2023-03-01T02:40:29;-1.90;88.40
3416;DHT22;1721;51.238;9.562;2023-03-01T02:42:56;-1.90;88.40
3416;DHT22;1721;51.238;9.562;2023-03-01T02:45:22;-1.90;88.80
3416;DHT22;1721;51.238;9.562;2023-03-01T02:47:48;-1.90;88.60
3416;DHT22;1721;51.238;9.562;2023-03-01T02:55:38;-2.20;89.60
3416;DHT22;1721;51.238;9.562;2023-03-01T02:58:04;-2.30;89.50
3416;DHT22;1721;51.238;9.562;2023-03-01T03:00:35;-2.30;89.70
3416;DHT22;1721;51.238;9.562;2023-03-01T03:03:04;-2.30;89.80
3416;DHT22;1721;51.238;9.562;2023-03-01T03:05:30;-2.20;89.40
3416;DHT22;1721;51.238;9.562;2023-03-01T03:07:56;-2.30;89.00
3416;DHT22;1721;51.238;9.562;2023-03-01T03:10:23;-2.30;89.20
3416;DHT22;1721;51.238;9.562;2023-03-01T03:12:49;-2.20;89.20
3416;DHT22;1721;51.238;9.562;2023-03-01T03:15:16;-2.20;88.40
3416;DHT22;1721;51.238;9.562;2023-03-01T03:17:41;-2.10;88.10
3416;DHT22;1721;51.238;9.562;2023-03-01T03:20:07;-2.00;88.10
3416;DHT22;1721;51.238;9.562;2023-03-01T03:22:39;-2.20;88.40
3416;DHT22;1721;51.238;9.562;2023-03-01T03:25:05;-2.20;88.60
3416;DHT22;1721;51.238;9.562;2023-03-01T03:27:36;-2.10;88.90
3416;DHT22;1721;51.238;9.562;2023-03-01T03:30:01;-2.10;88.50
3416;DHT22;1721;51.238;9.562;2023-03-01T03:32:27;-2.10;88.90
3416;DHT22;1721;51.238;9.562;2023-03-01T03:34:52;-2.10;88.00
3416;DHT22;1721;51.238;9.562;2023-03-01T03:37:18;-2.00;87.90
3416;DHT22;1721;51.238;9.562;2023-03-01T03:40:02;-2.00;87.80
3416;DHT22;1721;51.238;9.562;2023-03-01T03:42:28;-2.00;87.90
3416;DHT22;1721;51.238;9.562;2023-03-01T03:44:53;-2.00;88.00
3416;DHT22;1721;51.238;9.562;2023-03-01T03:47:19;-2.00;87.80
3416;DHT22;1721;51.238;9.562;2023-03-01T03:49:44;-2.00;88.10
3416;DHT22;1721;51.238;9.562;2023-03-01T03:52:10;-2.10;88.10
3416;DHT22;1721;51.238;9.562;2023-03-01T03:54:39;-2.10;88.40
3416;DHT22;1721;51.238;9.562;2023-03-01T03:57:05;-2.30;88.50
3416;DHT22;1721;51.238;9.562;2023-03-01T03:59:30;-2.50;89.10
3416;DHT22;1721;51.238;9.562;2023-03-01T04:01:55;-2.50;89.70
3416;DHT22;1721;51.238;9.562;2023-03-01T04:04:21;-2.40;89.20
3416;DHT22;1721;51.238;9.562;2023-03-01T04:06:46;-2.30;89.20
3416;DHT22;1721;51.238;9.562;2023-03-01T04:09:13;-2.30;88.80
3416;DHT22;1721;51.238;9.562;2023-03-01T04:11:39;-2.20;88.30
3416;DHT22;1721;51.238;9.562;2023-03-01T04:14:04;-2.10;88.00
3416;DHT22;1721;51.238;9.562;2023-03-01T04:16:30;-2.20;87.40
3416;DHT22;1721;51.238;9.562;2023-03-01T04:18:55;-2.20;87.40
3416;DHT22;1721;51.238;9.562;2023-03-01T04:21:21;-2.20;87.60
3416;DHT22;1721;51.238;9.562;2023-03-01T04:23:46;-2.10;87.50
3416;DHT22;1721;51.238;9.562;2023-03-01T04:26:12;-2.20;87.50
3416;DHT22;1721;51.238;9.562;2023-03-01T04:28:41;-2.10;87.50
3416;DHT22;1721;51.238;9.562;2023-03-01T04:31:11;-2.20;87.70
3416;DHT22;1721;51.238;9.562;2023-03-01T04:33:49;-2.30;88.20
3416;DHT22;1721;51.238;9.562;2023-03-01T04:36:17;-2.50;88.70
3416;DHT22;1721;51.238;9.562;2023-03-01T04:38:42;-2.50;89.00
3416;DHT22;1721;51.238;9.562;2023-03-01T04:41:13;-2.40;88.60
3416;DHT22;1721;51.238;9.562;2023-03-01T04:43:38;-2.40;88.10
3416;DHT22;1721;51.238;9.562;2023-03-01T04:46:05;-2.30;88.20
3416;DHT22;1721;51.238;9.562;2023-03-01T04:48:32;-2.30;87.70
3416;DHT22;1721;51.238;9.562;2023-03-01T04:50:58;-2.30;87.20
3416;DHT22;1721;51.238;9.562;2023-03-01T04:53:24;-2.40;87.40
3416;DHT22;1721;51.238;9.562;2023-03-01T04:55:49;-2.50;88.60
3416;DHT22;1721;51.238;9.562;2023-03-01T04:58:15;-2.40;88.20
3416;DHT22;1721;51.238;9.562;2023-03-01T05:00:40;-2.40;87.90
3416;DHT22;1721;51.238;9.562;2023-03-01T05:03:06;-2.40;87.70
3416;DHT22;1721;51.238;9.562;2023-03-01T05:05:35;-2.50;87.50
3416;DHT22;1721;51.238;9.562;2023-03-01T05:08:04;-2.40;87.40
3416;DHT22;1721;51.238;9.562;2023-03-01T05:10:30;-2.50;87.40
3416;DHT22;1721;51.238;9.562;2023-03-01T05:12:56;-2.70;88.20
3416;DHT22;1721;51.238;9.562;2023-03-01T05:15:22;-2.70;88.20
3416;DHT22;1721;51.238;9.562;2023-03-01T05:17:51;-2.70;88.00
3416;DHT22;1721;51.238;9.562;2023-03-01T05:20:16;-2.60;87.80
3416;DHT22;1721;51.238;9.562;2023-03-01T05:22:42;-2.60;87.30
3416;DHT22;1721;51.238;9.562;2023-03-01T05:25:07;-2.60;87.10
3416;DHT22;1721;51.238;9.562;2023-03-01T05:27:33;-2.60;87.00
3416;DHT22;1721;51.238;9.562;2023-03-01T05:29:58;-2.60;86.90
3416;DHT22;1721;51.238;9.562;2023-03-01T05:32:24;-2.60;87.10
3416;DHT22;1721;51.238;9.562;2023-03-01T05:34:49;-2.60;87.30
3416;DHT22;1721;51.238;9.562;2023-03-01T05:37:17;-2.80;87.70
3416;DHT22;1721;51.238;9.562;2023-03-01T05:39:42;-2.90;88.50
3416;DHT22;1721;51.238;9.562;2023-03-01T05:42:09;-2.80;88.20
3416;DHT22;1721;51.238;9.562;2023-03-01T05:44:35;-2.90;88.20
3416;DHT22;1721;51.238;9.562;2023-03-01T05:47:01;-2.90;88.50
3416;DHT22;1721;51.238;9.562;2023-03-01T05:49:26;-2.80;87.90
3416;DHT22;1721;51.238;9.562;2023-03-01T05:51:52;-2.90;88.10
3416;DHT22;1721;51.238;9.562;2023-03-01T05:54:21;-2.80;88.00
3416;DHT22;1721;51.238;9.562;2023-03-01T05:56:47;-2.80;88.10
3416;DHT22;1721;51.238;9.562;2023-03-01T05:59:12;-2.70;88.00
3416;DHT22;1721;51.238;9.562;2023-03-01T06:01:39;-2.70;87.60
3416;DHT22;1721;51.238;9.562;2023-03-01T06:04:04;-2.70;87.70
3416;DHT22;1721;51.238;9.562;2023-03-01T06:06:32;-2.80;88.90
3416;DHT22;1721;51.238;9.562;2023-03-01T06:08:58;-2.80;88.90
3416;DHT22;1721;51.238;9.562;2023-03-01T06:11:24;-2.80;88.70
3416;DHT22;1721;51.238;9.562;2023-03-01T06:13:49;-2.80;88.10
3416;DHT22;1721;51.238;9.562;2023-03-01T06:16:15;-2.80;88.20
3416;DHT22;1721;51.238;9.562;2023-03-01T06:18:41;-2.70;88.30
3416;DHT22;1721;51.238;9.562;2023-03-01T06:21:06;-2.70;88.20
3416;DHT22;1721;51.238;9.562;2023-03-01T06:23:32;-2.70;88.10
3416;DHT22;1721;51.238;9.562;2023-03-01T06:25:57;-2.60;88.50
3416;DHT22;1721;51.238;9.562;2023-03-01T06:28:23;-2.60;88.50
3416;DHT22;1721;51.238;9.562;2023-03-01T06:30:51;-2.70;88.80
3416;DHT22;1721;51.238;9.562;2023-03-01T06:33:17;-2.70;88.90
3416;DHT22;1721;51.238;9.562;2023-03-01T06:35:45;-2.70;89.20
3416;DHT22;1721;51.238;9.562;2023-03-01T06:38:11;-2.70;88.90
3416;DHT22;1721;51.238;9.562;2023-03-01T06:40:37;-2.60;88.60
3416;DHT22;1721;51.238;9.562;2023-03-01T06:43:02;-2.50;88.50
3416;DHT22;1721;51.238;9.562;2023-03-01T06:45:28;-2.50;88.60
3416;DHT22;1721;51.238;9.562;2023-03-01T06:48:00;-2.50;88.20
3416;DHT22;1721;51.238;9.562;2023-03-01T06:50:27;-2.40;88.60
3416;DHT22;1721;51.238;9.562;2023-03-01T06:52:56;-2.40;88.20
3416;DHT22;1721;51.238;9.562;2023-03-01T06:55:22;-2.40;88.10
3416;DHT22;1721;51.238;9.562;2023-03-01T06:57:47;-2.70;89.70
3416;DHT22;1721;51.238;9.562;2023-03-01T07:00:13;-2.70;90.20
3416;DHT22;1721;51.238;9.562;2023-03-01T07:02:38;-2.80;90.20
3416;DHT22;1721;51.238;9.562;2023-03-01T07:05:04;-2.50;90.50
3416;DHT22;1721;51.238;9.562;2023-03-01T07:07:29;-2.70;90.10
3416;DHT22;1721;51.238;9.562;2023-03-01T07:09:55;-2.50;90.50
3416;DHT22;1721;51.238;9.562;2023-03-01T07:12:20;-2.30;90.30
3416;DHT22;1721;51.238;9.562;2023-03-01T07:14:46;-2.10;90.10
3416;DHT22;1721;51.238;9.562;2023-03-01T07:17:11;-1.90;89.90
3416;DHT22;1721;51.238;9.562;2023-03-01T07:19:37;-2.10;90.20
3416;DHT22;1721;51.238;9.562;2023-03-01T07:22:03;-1.90;90.30
3416;DHT22;1721;51.238;9.562;2023-03-01T07:24:29;-1.70;90.20
3416;DHT22;1721;51.238;9.562;2023-03-01T07:26:55;-1.50;89.80
3416;DHT22;1721;51.238;9.562;2023-03-01T07:29:20;-1.30;89.80
3416;DHT22;1721;51.238;9.562;2023-03-01T07:31:45;-1.20;89.80
3416;DHT22;1721;51.238;9.562;2023-03-01T07:34:11;-1.10;90.10
3416;DHT22;1721;51.238;9.562;2023-03-01T07:36:37;-1.00;90.50
3416;DHT22;1721;51.238;9.562;2023-03-01T07:39:03;-0.80;90.40
3416;DHT22;1721;51.238;9.562;2023-03-01T07:41:28;-0.70;90.20
3416;DHT22;1721;51.238;9.562;2023-03-01T07:43:54;-0.50;90.30
3416;DHT22;1721;51.238;9.562;2023-03-01T07:46:20;-0.40;90.00
3416;DHT22;1721;51.238;9.562;2023-03-01T07:48:45;-0.40;90.00
3416;DHT22;1721;51.238;9.562;2023-03-01T07:51:11;-0.20;90.00
3416;DHT22;1721;51.238;9.562;2023-03-01T07:53:36;0.00;90.00
3416;DHT22;1721;51.238;9.562;2023-03-01T07:56:02;0.00;88.80
3416;DHT22;1721;51.238;9.562;2023-03-01T07:58:28;0.20;88.50
3416;DHT22;1721;51.238;9.562;2023-03-01T08:00:53;0.30;88.30
3416;DHT22;1721;51.238;9.562;2023-03-01T08:03:18;0.40;88.30
3416;DHT22;1721;51.238;9.562;2023-03-01T08:05:44;0.50;88.30
3416;DHT22;1721;51.238;9.562;2023-03-01T08:08:09;0.60;88.30
3416;DHT22;1721;51.238;9.562;2023-03-01T08:10:35;0.70;88.20
3416;DHT22;1721;51.238;9.562;2023-03-01T08:13:01;0.70;88.40
3416;DHT22;1721;51.238;9.562;2023-03-01T08:15:26;0.80;87.60
3416;DHT22;1721;51.238;9.562;2023-03-01T08:17:52;0.70;87.90
3416;DHT22;1721;51.238;9.562;2023-03-01T08:20:17;0.70;88.10
3416;DHT22;1721;51.238;9.562;2023-03-01T08:22:43;0.70;87.50
3416;DHT22;1721;51.238;9.562;2023-03-01T08:25:08;0.70;87.70
3416;DHT22;1721;51.238;9.562;2023-03-01T08:27:34;0.80;87.40
3416;DHT22;1721;51.238;9.562;2023-03-01T08:29:59;0.70;88.40
3416;DHT22;1721;51.238;9.562;2023-03-01T08:32:24;1.00;88.60
3416;DHT22;1721;51.238;9.562;2023-03-01T08:34:50;1.20;88.10
3416;DHT22;1721;51.238;9.562;2023-03-01T08:37:15;1.30;87.70
3416;DHT22;1721;51.238;9.562;2023-03-01T08:39:41;1.40;87.00
3416;DHT22;1721;51.238;9.562;2023-03-01T08:42:06;1.40;87.30
3416;DHT22;1721;51.238;9.562;2023-03-01T08:44:32;1.50;87.30
3416;DHT22;1721;51.238;9.562;2023-03-01T08:46:57;1.40;87.20
3416;DHT22;1721;51.238;9.562;2023-03-01T08:49:23;1.40;87.70
3416;DHT22;1721;51.238;9.562;2023-03-01T08:51:49;1.30;88.00
3416;DHT22;1721;51.238;9.562;2023-03-01T08:54:15;1.30;87.70
3416;DHT22;1721;51.238;9.562;2023-03-01T08:56:41;1.40;87.70
3416;DHT22;1721;51.238;9.562;2023-03-01T08:59:07;1.50;87.70
3416;DHT22;1721;51.238;9.562;2023-03-01T09:01:33;1.60;87.80
3416;DHT22;1721;51.238;9.562;2023-03-01T09:03:58;1.60;86.90
3416;DHT22;1721;51.238;9.562;2023-03-01T09:06:24;1.50;88.10
3416;DHT22;1721;51.238;9.562;2023-03-01T09:08:50;1.60;87.60
3416;DHT22;1721;51.238;9.562;2023-03-01T09:11:17;1.80;87.20
3416;DHT22;1721;51.238;9.562;2023-03-01T09:13:43;2.10;86.80
3416;DHT22;1721;51.238;9.562;2023-03-01T09:16:10;2.10;86.80
3416;DHT22;1721;51.238;9.562;2023-03-01T09:18:36;2.20;87.20
3416;DHT22;1721;51.238;9.562;2023-03-01T09:21:06;2.40;86.60
3416;DHT22;1721;51.238;9.562;2023-03-01T09:23:33;2.50;85.60
3416;DHT22;1721;51.238;9.562;2023-03-01T09:25:58;2.60;85.60
3416;DHT22;1721;51.238;9.562;2023-03-01T09:28:24;2.60;86.00
3416;DHT22;1721;51.238;9.562;2023-03-01T09:30:49;2.60;83.80
3416;DHT22;1721;51.238;9.562;2023-03-01T09:33:14;2.60;82.60
3416;DHT22;1721;51.238;9.562;2023-03-01T09:35:40;2.60;81.00
3416;DHT22;1721;51.238;9.562;2023-03-01T09:38:11;2.80;80.70
3416;DHT22;1721;51.238;9.562;2023-03-01T09:40:37;2.80;80.30
3416;DHT22;1721;51.238;9.562;2023-03-01T09:43:53;2.90;79.70
3416;DHT22;1721;51.238;9.562;2023-03-01T09:45:54;3.00;79.70
3416;DHT22;1721;51.238;9.562;2023-03-01T09:48:21;3.10;79.80
3416;DHT22;1721;51.238;9.562;2023-03-01T09:50:49;3.20;79.20
3416;DHT22;1721;51.238;9.562;2023-03-01T09:53:20;3.50;78.40
3416;DHT22;1721;51.238;9.562;2023-03-01T09:55:58;3.60;76.80
3416;DHT22;1721;51.238;9.562;2023-03-01T10:03:57;4.00;77.20
3416;DHT22;1721;51.238;9.562;2023-03-01T10:06:25;3.90;76.00
3416;DHT22;1721;51.238;9.562;2023-03-01T10:08:58;3.80;75.50
3416;DHT22;1721;51.238;9.562;2023-03-01T10:11:27;3.70;75.60
3416;DHT22;1721;51.238;9.562;2023-03-01T10:14:04;3.40;75.80
3416;DHT22;1721;51.238;9.562;2023-03-01T10:17:05;3.50;76.20
3416;DHT22;1721;51.238;9.562;2023-03-01T10:19:32;3.60;76.00
3416;DHT22;1721;51.238;9.562;2023-03-01T10:22:03;3.70;75.90
3416;DHT22;1721;51.238;9.562;2023-03-01T10:24:31;4.00;76.60
3416;DHT22;1721;51.238;9.562;2023-03-01T10:27:01;4.10;76.50
3416;DHT22;1721;51.238;9.562;2023-03-01T10:29:30;4.10;75.00
3416;DHT22;1721;51.238;9.562;2023-03-01T10:31:57;4.00;75.50
3416;DHT22;1721;51.238;9.562;2023-03-01T10:34:32;4.10;76.70
3416;DHT22;1721;51.238;9.562;2023-03-01T10:37:14;4.30;76.70
3416;DHT22;1721;51.238;9.562;2023-03-01T10:42:28;4.50;73.30
3416;DHT22;1721;51.238;9.562;2023-03-01T10:44:53;4.40;73.50
3416;DHT22;1721;51.238;9.562;2023-03-01T10:47:20;4.20;74.20
3416;DHT22;1721;51.238;9.562;2023-03-01T10:52:18;4.00;73.20
3416;DHT22;1721;51.238;9.562;2023-03-01T10:54:50;4.20;73.20
3416;DHT22;1721;51.238;9.562;2023-03-01T11:00:00;4.20;72.40
3416;DHT22;1721;51.238;9.562;2023-03-01T11:02:30;4.10;71.80
3416;DHT22;1721;51.238;9.562;2023-03-01T11:04:59;4.10;72.10
3416;DHT22;1721;51.238;9.562;2023-03-01T11:07:25;4.30;72.50
3416;DHT22;1721;51.238;9.562;2023-03-01T11:09:51;4.30;71.50
3416;DHT22;1721;51.238;9.562;2023-03-01T11:12:16;4.40;69.50
3416;DHT22;1721;51.238;9.562;2023-03-01T11:14:46;4.60;67.80
3416;DHT22;1721;51.238;9.562;2023-03-01T11:17:21;4.50;65.80
3416;DHT22;1721;51.238;9.562;2023-03-01T11:19:59;4.60;67.60
3416;DHT22;1721;51.238;9.562;2023-03-01T11:22:25;4.70;65.40
3416;DHT22;1721;51.238;9.562;2023-03-01T11:24:51;4.70;64.90
3416;DHT22;1721;51.238;9.562;2023-03-01T11:29:47;5.10;71.40
3416;DHT22;1721;51.238;9.562;2023-03-01T11:32:16;5.20;73.20
3416;DHT22;1721;51.238;9.562;2023-03-01T11:34:43;5.30;73.30
3416;DHT22;1721;51.238;9.562;2023-03-01T11:37:55;5.50;73.10
3416;DHT22;1721;51.238;9.562;2023-03-01T11:40:23;5.70;71.60
3416;DHT22;1721;51.238;9.562;2023-03-01T11:42:56;5.70;71.50
3416;DHT22;1721;51.238;9.562;2023-03-01T11:45:24;5.50;72.20
3416;DHT22;1721;51.238;9.562;2023-03-01T11:48:07;5.60;71.40
3416;DHT22;1721;51.238;9.562;2023-03-01T11:55:55;5.30;73.10
3416;DHT22;1721;51.238;9.562;2023-03-01T11:58:36;5.40;72.30
3416;DHT22;1721;51.238;9.562;2023-03-01T12:01:12;5.50;71.20
3416;DHT22;1721;51.238;9.562;2023-03-01T12:08:51;5.70;71.80
3416;DHT22;1721;51.238;9.562;2023-03-01T12:13:59;5.60;71.80
3416;DHT22;1721;51.238;9.562;2023-03-01T12:24:31;5.40;72.30
3416;DHT22;1721;51.238;9.562;2023-03-01T12:37:27;5.50;70.30
3416;DHT22;1721;51.238;9.562;2023-03-01T12:47:29;5.60;71.20
3416;DHT22;1721;51.238;9.562;2023-03-01T12:49:58;5.60;70.90
3416;DHT22;1721;51.238;9.562;2023-03-01T12:55:00;5.90;68.40
3416;DHT22;1721;51.238;9.562;2023-03-01T12:57:28;6.00;69.60
3416;DHT22;1721;51.238;9.562;2023-03-01T13:02:47;5.90;68.60
3416;DHT22;1721;51.238;9.562;2023-03-01T13:05:23;6.00;69.60
3416;DHT22;1721;51.238;9.562;2023-03-01T13:07:53;5.80;69.80
3416;DHT22;1721;51.238;9.562;2023-03-01T13:10:33;5.90;68.40
3416;DHT22;1721;51.238;9.562;2023-03-01T13:15:34;6.00;68.50
3416;DHT22;1721;51.238;9.562;2023-03-01T13:18:04;6.00;67.70
3416;DHT22;1721;51.238;9.562;2023-03-01T13:31:01;6.10;66.00
3416;DHT22;1721;51.238;9.562;2023-03-01T13:35:53;6.10;64.80
3416;DHT22;1721;51.238;9.562;2023-03-01T13:41:03;6.30;62.40
3416;DHT22;1721;51.238;9.562;2023-03-01T13:43:30;6.20;61.20
3416;DHT22;1721;51.238;9.562;2023-03-01T13:45:55;6.20;60.20
3416;DHT22;1721;51.238;9.562;2023-03-01T13:48:23;6.10;61.40
3416;DHT22;1721;51.238;9.562;2023-03-01T13:50:55;6.10;60.60
3416;DHT22;1721;51.238;9.562;2023-03-01T13:53:24;6.20;59.20
3416;DHT22;1721;51.238;9.562;2023-03-01T13:55:51;6.30;60.50
3416;DHT22;1721;51.238;9.562;2023-03-01T14:01:02;6.40;62.50
3416;DHT22;1721;51.238;9.562;2023-03-01T14:03:28;6.40;59.90
3416;DHT22;1721;51.238;9.562;2023-03-01T14:06:05;6.40;60.10
3416;DHT22;1721;51.238;9.562;2023-03-01T14:08:34;6.30;59.40
3416;DHT22;1721;51.238;9.562;2023-03-01T14:11:06;6.30;59.50
3416;DHT22;1721;51.238;9.562;2023-03-01T14:19:27;6.40;62.10
3416;DHT22;1721;51.238;9.562;2023-03-01T14:21:27;6.50;59.40
3416;DHT22;1721;51.238;9.562;2023-03-01T14:23:52;6.50;58.80
3416;DHT22;1721;51.238;9.562;2023-03-01T14:26:21;6.50;59.50
3416;DHT22;1721;51.238;9.562;2023-03-01T14:28:47;6.60;60.70
3416;DHT22;1721;51.238;9.562;2023-03-01T14:31:29;6.50;62.00
3416;DHT22;1721;51.238;9.562;2023-03-01T14:33:56;6.50;61.20
3416;DHT22;1721;51.238;9.562;2023-03-01T14:36:28;6.50;60.90
3416;DHT22;1721;51.238;9.562;2023-03-01T14:38:54;6.50;60.00
3416;DHT22;1721;51.238;9.562;2023-03-01T14:41:24;6.50;61.30
3416;DHT22;1721;51.238;9.562;2023-03-01T14:43:53;6.40;61.50
3416;DHT22;1721;51.238;9.562;2023-03-01T14:46:25;6.50;61.20
3416;DHT22;1721;51.238;9.562;2023-03-01T14:48:52;6.40;60.00
3416;DHT22;1721;51.238;9.562;2023-03-01T14:51:18;6.40;59.90
3416;DHT22;1721;51.238;9.562;2023-03-01T14:53:44;6.30;59.80
3416;DHT22;1721;51.238;9.562;2023-03-01T14:56:13;6.30;59.70
3416;DHT22;1721;51.238;9.562;2023-03-01T14:58:38;6.40;59.40
3416;DHT22;1721;51.238;9.562;2023-03-01T15:01:04;6.60;59.30
3416;DHT22;1721;51.238;9.562;2023-03-01T15:03:31;6.50;59.50
3416;DHT22;1721;51.238;9.562;2023-03-01T15:05:58;6.30;60.00
3416;DHT22;1721;51.238;9.562;2023-03-01T15:08:25;6.40;60.10
3416;DHT22;1721;51.238;9.562;2023-03-01T15:10:58;6.20;60.80
3416;DHT22;1721;51.238;9.562;2023-03-01T15:13:25;6.20;60.70
3416;DHT22;1721;51.238;9.562;2023-03-01T15:15:51;6.10;61.10
3416;DHT22;1721;51.238;9.562;2023-03-01T15:20:43;6.30;61.00
3416;DHT22;1721;51.238;9.562;2023-03-01T15:25:44;6.20;61.10
3416;DHT22;1721;51.238;9.562;2023-03-01T15:28:19;6.50;60.80
3416;DHT22;1721;51.238;9.562;2023-03-01T15:30:45;6.60;60.30
3416;DHT22;1721;51.238;9.562;2023-03-01T15:38:57;6.70;60.50
3416;DHT22;1721;51.238;9.562;2023-03-01T15:41:27;6.50;59.70
3416;DHT22;1721;51.238;9.562;2023-03-01T15:43:53;6.40;60.10
3416;DHT22;1721;51.238;9.562;2023-03-01T15:46:29;6.30;59.80
3416;DHT22;1721;51.238;9.562;2023-03-01T15:48:58;6.20;59.80
3416;DHT22;1721;51.238;9.562;2023-03-01T15:51:28;6.20;60.70
3416;DHT22;1721;51.238;9.562;2023-03-01T15:53:55;6.20;60.30
3416;DHT22;1721;51.238;9.562;2023-03-01T15:56:21;6.30;61.20
3416;DHT22;1721;51.238;9.562;2023-03-01T15:58:46;6.40;61.50
3416;DHT22;1721;51.238;9.562;2023-03-01T16:01:13;6.40;60.90
3416;DHT22;1721;51.238;9.562;2023-03-01T16:03:39;6.50;61.20
3416;DHT22;1721;51.238;9.562;2023-03-01T16:06:04;6.50;61.20
3416;DHT22;1721;51.238;9.562;2023-03-01T16:08:30;6.40;61.60
3416;DHT22;1721;51.238;9.562;2023-03-01T16:10:55;6.30;60.00
3416;DHT22;1721;51.238;9.562;2023-03-01T16:13:21;6.30;59.60
3416;DHT22;1721;51.238;9.562;2023-03-01T16:15:46;6.30;59.70
3416;DHT22;1721;51.238;9.562;2023-03-01T16:18:12;6.30;59.40
3416;DHT22;1721;51.238;9.562;2023-03-01T16:20:38;6.30;59.60
3416;DHT22;1721;51.238;9.562;2023-03-01T16:23:04;6.20;60.00
3416;DHT22;1721;51.238;9.562;2023-03-01T16:25:30;6.10;60.20
3416;DHT22;1721;51.238;9.562;2023-03-01T16:27:56;6.10;60.90
3416;DHT22;1721;51.238;9.562;2023-03-01T16:30:23;5.90;61.00
3416;DHT22;1721;51.238;9.562;2023-03-01T16:32:49;5.80;61.60
3416;DHT22;1721;51.238;9.562;2023-03-01T16:35:17;5.90;61.50
3416;DHT22;1721;51.238;9.562;2023-03-01T16:37:43;5.80;61.40
3416;DHT22;1721;51.238;9.562;2023-03-01T16:40:28;5.80;61.60
3416;DHT22;1721;51.238;9.562;2023-03-01T16:42:54;5.70;61.10
3416;DHT22;1721;51.238;9.562;2023-03-01T16:45:25;5.60;60.90
3416;DHT22;1721;51.238;9.562;2023-03-01T16:47:51;5.50;60.90
3416;DHT22;1721;51.238;9.562;2023-03-01T16:50:17;5.50;61.30
3416;DHT22;1721;51.238;9.562;2023-03-01T16:52:42;5.50;60.70
3416;DHT22;1721;51.238;9.562;2023-03-01T16:55:08;5.60;60.90
3416;DHT22;1721;51.238;9.562;2023-03-01T16:57:35;5.70;60.40
3416;DHT22;1721;51.238;9.562;2023-03-01T17:00:00;5.60;60.50
3416;DHT22;1721;51.238;9.562;2023-03-01T17:02:36;5.40;60.60
3416;DHT22;1721;51.238;9.562;2023-03-01T17:05:02;5.40;60.80
3416;DHT22;1721;51.238;9.562;2023-03-01T17:07:28;5.50;60.60
3416;DHT22;1721;51.238;9.562;2023-03-01T17:09:53;5.50;60.60
3416;DHT22;1721;51.238;9.562;2023-03-01T17:12:19;5.40;60.70
3416;DHT22;1721;51.238;9.562;2023-03-01T17:14:44;5.30;60.90
3416;DHT22;1721;51.238;9.562;2023-03-01T17:17:10;5.40;60.80
3416;DHT22;1721;51.238;9.562;2023-03-01T17:19:36;5.40;60.70
3416;DHT22;1721;51.238;9.562;2023-03-01T17:22:07;5.40;60.40
3416;DHT22;1721;51.238;9.562;2023-03-01T17:24:33;5.30;60.40
3416;DHT22;1721;51.238;9.562;2023-03-01T17:26:59;5.20;60.70
3416;DHT22;1721;51.238;9.562;2023-03-01T17:29:24;5.10;61.10
3416;DHT22;1721;51.238;9.562;2023-03-01T17:31:50;4.90;61.40
3416;DHT22;1721;51.238;9.562;2023-03-01T17:34:15;4.80;61.50
3416;DHT22;1721;51.238;9.562;2023-03-01T17:36:41;4.70;61.70
3416;DHT22;1721;51.238;9.562;2023-03-01T17:39:09;4.70;62.60
3416;DHT22;1721;51.238;9.562;2023-03-01T17:41:34;4.70;62.50
3416;DHT22;1721;51.238;9.562;2023-03-01T17:44:00;4.60;63.20
3416;DHT22;1721;51.238;9.562;2023-03-01T17:46:25;4.50;63.30
3416;DHT22;1721;51.238;9.562;2023-03-01T17:48:51;4.50;63.60
3416;DHT22;1721;51.238;9.562;2023-03-01T17:51:17;4.50;63.30
3416;DHT22;1721;51.238;9.562;2023-03-01T17:53:43;4.50;63.50
3416;DHT22;1721;51.238;9.562;2023-03-01T17:56:08;4.50;63.50